createdAt,value
2022-09-27T00:04:26.779Z,37.50
2022-09-27T00:09:33.670Z,37.20
2022-09-27T00:14:40.782Z,31.60
2022-09-27T00:24:53.643Z,26.50
2022-09-27T00:30:00.551Z,21.10
2022-09-27T00:35:09.146Z,23.50
2022-09-27T00:40:19.793Z,21.40
2022-09-27T00:45:27.682Z,22.40
2022-09-27T00:50:35.767Z,22.40
2022-09-27T00:55:46.350Z,28.60
2022-09-27T01:00:57.348Z,25.40
2022-09-27T01:06:07.963Z,25.90
2022-09-27T01:11:27.091Z,24.60
2022-09-27T01:16:44.755Z,25.20
2022-09-27T01:22:04.171Z,25.80
2022-09-27T01:27:37.882Z,20.20
2022-09-27T01:32:55.188Z,22.20
2022-09-27T01:38:11.000Z,20.10
2022-09-27T01:43:24.061Z,16.90
2022-09-27T01:48:36.625Z,16.00
2022-09-27T01:53:47.468Z,20.10
2022-09-27T01:58:59.411Z,21.10
2022-09-27T02:04:10.878Z,20.70
2022-09-27T02:09:22.912Z,21.80
2022-09-27T02:14:35.830Z,23.60
2022-09-27T02:19:51.225Z,21.40
2022-09-27T02:25:04.999Z,22.20
2022-09-27T02:30:14.868Z,20.70
2022-09-27T02:35:28.096Z,23.20
2022-09-27T02:40:37.675Z,18.20
2022-09-27T02:45:59.264Z,21.50
2022-09-27T02:51:22.689Z,18.50
2022-09-27T02:56:37.247Z,19.40
2022-09-27T03:01:53.599Z,20.30
2022-09-27T03:07:01.718Z,21.70
2022-09-27T03:12:08.922Z,20.50
2022-09-27T03:17:15.906Z,21.00
2022-09-27T03:27:30.803Z,18.00
2022-09-27T03:32:43.312Z,16.90
2022-09-27T03:37:51.277Z,16.70
2022-09-27T03:42:59.011Z,15.50
2022-09-27T03:48:06.502Z,24.40
2022-09-27T03:53:13.390Z,24.50
2022-09-27T03:58:20.188Z,24.90
2022-09-27T04:03:27.216Z,21.90
2022-09-27T04:13:39.553Z,22.10
2022-09-27T04:18:47.064Z,23.60
2022-09-27T04:23:53.956Z,22.70
2022-09-27T04:29:01.176Z,22.50
2022-09-27T04:34:08.479Z,18.60
2022-09-27T04:39:15.747Z,19.80
2022-09-27T04:44:22.905Z,19.40
2022-09-27T04:49:29.986Z,24.40
2022-09-27T04:59:42.915Z,24.90
2022-09-27T05:04:49.862Z,25.00
2022-09-27T05:09:57.431Z,19.80
2022-09-27T05:15:06.020Z,25.40
2022-09-27T05:20:14.341Z,13.60
2022-09-27T05:25:21.750Z,28.30
2022-09-27T05:30:32.560Z,27.70
2022-09-27T05:35:45.526Z,25.00
2022-09-27T05:40:53.979Z,17.60
2022-09-27T05:46:01.736Z,20.30
2022-09-27T05:51:09.229Z,25.40
2022-09-27T05:56:17.541Z,25.80
2022-09-27T06:01:27.969Z,24.40
2022-09-27T06:06:37.649Z,27.20
2022-09-27T06:11:45.605Z,21.70
2022-09-27T06:16:55.309Z,28.30
2022-09-27T06:22:05.114Z,28.60
2022-09-27T06:27:11.956Z,26.30
2022-09-27T06:32:18.790Z,26.70
2022-09-27T06:37:29.232Z,29.80
2022-09-27T06:42:37.046Z,31.10
2022-09-27T06:47:44.451Z,33.00
2022-09-27T06:52:53.799Z,37.60
2022-09-27T06:58:19.644Z,41.20
2022-09-27T07:03:35.499Z,42.70
2022-09-27T07:08:43.728Z,48.40
2022-09-27T07:18:56.109Z,51.70
2022-09-27T07:24:04.291Z,54.30
2022-09-27T07:29:13.882Z,50.40
2022-09-27T07:34:23.096Z,53.50
2022-09-27T07:39:30.111Z,47.50
2022-09-27T07:44:38.045Z,46.30
2022-09-27T07:49:47.543Z,52.50
2022-09-27T07:54:54.575Z,42.80
2022-09-27T08:00:03.021Z,44.40
2022-09-27T08:05:11.371Z,38.80
2022-09-27T08:10:18.941Z,39.90
2022-09-27T08:15:28.830Z,34.50
2022-09-27T08:20:34.548Z,34.50
2022-09-27T08:25:42.821Z,39.60
2022-09-27T08:30:52.058Z,41.10
2022-09-27T08:35:59.994Z,49.00
2022-09-27T08:41:15.502Z,48.30
2022-09-27T08:46:36.212Z,42.00
2022-09-27T08:51:46.658Z,41.00
2022-09-27T08:57:00.165Z,39.50
2022-09-27T09:02:14.058Z,42.80
2022-09-27T09:07:40.004Z,33.10
2022-09-27T09:12:58.890Z,31.20
2022-09-27T09:18:23.759Z,29.50
2022-09-27T09:23:59.132Z,26.00
2022-09-27T09:29:21.190Z,21.20
2022-09-27T09:34:35.780Z,18.70
2022-09-27T09:39:49.380Z,27.70
2022-09-27T09:45:01.463Z,19.70
2022-09-27T09:50:21.624Z,19.30
2022-09-27T09:55:36.908Z,16.20
2022-09-27T10:00:47.886Z,17.10
2022-09-27T10:05:55.856Z,16.30
2022-09-27T10:11:04.131Z,22.90
2022-09-27T10:16:15.469Z,16.40
2022-09-27T10:21:27.397Z,12.10
2022-09-27T10:26:37.003Z,14.30
2022-09-27T10:31:48.060Z,11.80
2022-09-27T10:37:06.945Z,12.30
2022-09-27T10:42:34.154Z,14.00
2022-09-27T10:47:42.486Z,15.20
2022-09-27T10:52:50.505Z,17.60
2022-09-27T10:57:58.396Z,19.70
2022-09-27T11:03:14.310Z,17.20
2022-09-27T11:08:30.680Z,21.40
2022-09-27T11:13:38.724Z,11.70
2022-09-27T11:18:58.980Z,12.10
2022-09-27T11:24:25.024Z,10.10
2022-09-27T11:29:41.292Z,9.70
2022-09-27T11:35:07.045Z,10.50
2022-09-27T11:40:27.648Z,8.90
2022-09-27T11:46:14.248Z,8.30
2022-09-27T11:51:27.197Z,9.40
2022-09-27T11:56:49.676Z,8.20
2022-09-27T12:02:08.226Z,8.80
2022-09-27T12:07:23.374Z,11.60
2022-09-27T12:12:34.054Z,8.00
2022-09-27T12:17:44.105Z,6.40
2022-09-27T12:23:00.414Z,7.60
2022-09-27T12:28:15.593Z,5.90
2022-09-27T12:33:30.404Z,6.60
2022-09-27T12:38:45.257Z,6.40
2022-09-27T12:43:54.179Z,5.10
2022-09-27T12:49:09.443Z,5.70
2022-09-27T12:54:53.193Z,4.90
2022-09-27T13:00:10.469Z,5.50
2022-09-27T13:05:58.952Z,5.40
2022-09-27T13:11:18.010Z,4.10
2022-09-27T13:16:26.932Z,4.50
2022-09-27T13:22:00.854Z,5.50
2022-09-27T13:27:40.722Z,4.50
2022-09-27T13:33:33.263Z,4.20
2022-09-27T13:38:40.632Z,4.60
2022-09-27T13:44:05.258Z,5.00
2022-09-27T13:49:20.360Z,3.90
2022-09-27T13:54:51.064Z,4.20
2022-09-27T14:00:04.807Z,3.80
2022-09-27T14:05:19.582Z,4.20
2022-09-27T14:10:28.824Z,4.60
2022-09-27T14:15:37.058Z,5.20
2022-09-27T14:20:47.655Z,4.20
2022-09-27T14:25:58.915Z,4.80
2022-09-27T14:31:16.367Z,4.60
2022-09-27T14:36:48.968Z,4.80
2022-09-27T14:41:55.832Z,5.10
2022-09-27T14:47:21.640Z,7.70
2022-09-27T14:52:33.447Z,5.30
2022-09-27T14:57:52.459Z,6.60
2022-09-27T15:03:03.417Z,5.90
2022-09-27T15:08:15.624Z,5.30
2022-09-27T15:13:23.348Z,7.10
2022-09-27T15:18:42.187Z,6.60
2022-09-27T15:23:50.215Z,6.40
2022-09-27T15:28:57.224Z,5.10
2022-09-27T15:34:06.848Z,6.00
2022-09-27T15:39:20.582Z,5.20
2022-09-27T15:44:54.130Z,4.40
2022-09-27T15:50:23.058Z,4.40
2022-09-27T15:55:34.260Z,3.90
2022-09-27T16:00:53.986Z,5.20
2022-09-27T16:06:02.311Z,5.50
2022-09-27T16:11:11.535Z,4.30
2022-09-27T16:16:23.571Z,4.30
2022-09-27T16:21:32.204Z,4.50
2022-09-27T16:26:39.307Z,4.80
2022-09-27T16:31:46.727Z,3.20
2022-09-27T16:36:53.705Z,3.40
2022-09-27T16:42:05.105Z,3.60
2022-09-27T16:47:12.492Z,3.70
2022-09-27T16:52:19.609Z,3.00
2022-09-27T16:57:28.656Z,3.50
2022-09-27T17:02:36.578Z,3.50
2022-09-27T17:07:43.992Z,4.00
2022-09-27T17:12:51.373Z,7.90
2022-09-27T17:17:59.220Z,9.50
2022-09-27T17:23:07.131Z,6.50
2022-09-27T17:28:14.354Z,7.50
2022-09-27T17:33:22.982Z,10.80
2022-09-27T17:38:30.084Z,8.90
2022-09-27T17:43:38.009Z,11.30
2022-09-27T17:49:03.221Z,8.50
2022-09-27T17:54:12.157Z,7.20
2022-09-27T17:59:20.093Z,10.90
2022-09-27T18:04:27.098Z,10.10
2022-09-27T18:09:35.631Z,11.60
2022-09-27T18:14:43.297Z,9.50
2022-09-27T18:19:52.046Z,9.70
2022-09-27T18:25:01.334Z,8.30
2022-09-27T18:30:12.514Z,10.50
2022-09-27T18:35:20.968Z,10.00
2022-09-27T18:40:54.444Z,10.70
2022-09-27T18:45:57.426Z,9.10
2022-09-27T18:51:13.885Z,10.70
2022-09-27T18:56:20.984Z,10.70
2022-09-27T19:01:28.788Z,11.10
2022-09-27T19:06:37.366Z,12.90
2022-09-27T19:11:46.920Z,12.00
2022-09-27T19:16:54.698Z,11.70
2022-09-27T19:22:01.759Z,11.20
2022-09-27T19:27:09.448Z,14.60
2022-09-27T19:32:16.967Z,14.20
2022-09-27T19:37:24.063Z,12.40
2022-09-27T19:42:31.593Z,13.20
2022-09-27T19:47:39.251Z,14.30
2022-09-27T19:52:47.650Z,13.10
2022-09-27T19:57:56.570Z,16.80
2022-09-27T20:03:03.617Z,13.40
2022-09-27T20:08:10.812Z,16.10
2022-09-27T20:13:18.278Z,17.10
2022-09-27T20:18:25.889Z,18.70
2022-09-27T20:23:34.790Z,17.20
2022-09-27T20:28:45.874Z,18.80
2022-09-27T20:33:55.140Z,18.40
2022-09-27T20:39:05.467Z,20.40
2022-09-27T20:44:15.752Z,18.20
2022-09-27T20:49:25.572Z,17.90
2022-09-27T20:54:33.724Z,18.30
2022-09-27T20:59:42.979Z,18.40
2022-09-27T21:04:49.880Z,18.60
2022-09-27T21:09:57.439Z,17.10
2022-09-27T21:15:05.414Z,22.10
2022-09-27T21:20:15.023Z,21.50
2022-09-27T21:25:22.095Z,18.90
2022-09-27T21:30:30.578Z,19.60
2022-09-27T21:35:37.655Z,19.60
2022-09-27T21:40:54.512Z,17.20
2022-09-27T21:46:09.928Z,21.80
2022-09-27T21:51:19.170Z,21.20
2022-09-27T21:56:29.258Z,20.10
2022-09-27T22:01:36.915Z,20.40
2022-09-27T22:06:45.294Z,21.30
2022-09-27T22:11:52.080Z,21.50
2022-09-27T22:22:04.666Z,21.60
2022-09-27T22:27:11.758Z,21.00
2022-09-27T22:32:18.758Z,19.70
2022-09-27T22:37:25.578Z,22.80
2022-09-27T22:42:32.464Z,22.40
2022-09-27T22:52:44.791Z,23.20
2022-09-27T22:57:54.252Z,23.70
2022-09-27T23:03:01.879Z,23.40
2022-09-27T23:08:09.146Z,21.80
2022-09-27T23:13:15.978Z,22.00
2022-09-27T23:23:28.960Z,21.80
2022-09-27T23:28:36.597Z,22.90
2022-09-27T23:33:46.652Z,25.70
2022-09-27T23:38:54.164Z,23.40
2022-09-27T23:44:02.054Z,18.60
2022-09-27T23:49:13.091Z,17.20
2022-09-27T23:54:20.198Z,31.90
2022-09-27T23:59:27.580Z,21.70
